Time;durP1;ratioP1;P1;durP2;ratioP2;P2;SDS_P1;SDS_P2;PMS_P1;PMS_P2;Temp;Humidity;BMP_temperature;BMP_pressure;BME280_temperature;BME280_humidity;BME280_pressure;Samples;Min_cycle;Max_cycle;Signal;HPM_P1;HPM_P2
2021/09/12 00:00:25;;;;;;;33.72;21.88;;;27.10;96.30;;;;;;5044047;28;20079;-52
2021/09/12 00:02:51;;;;;;;33.70;18.95;;;27.10;96.30;;;;;;5044024;28;20030;-50
2021/09/12 00:05:18;;;;;;;28.30;17.20;;;27.00;96.30;;;;;;5043748;28;20332;-49
2021/09/12 00:07:46;;;;;;;24.95;16.95;;;27.00;96.40;;;;;;5043570;28;20053;-49
2021/09/12 00:10:13;;;;;;;27.23;17.52;;;26.90;96.50;;;;;;5042684;28;20081;-48
2021/09/12 00:12:40;;;;;;;28.60;15.45;;;26.90;96.70;;;;;;5043455;28;20037;-52
2021/09/12 00:15:10;;;;;;;31.38;20.10;;;26.80;96.70;;;;;;5043358;28;20079;-46
2021/09/12 00:17:37;;;;;;;31.42;17.88;;;26.80;96.80;;;;;;5043249;28;20313;-47
2021/09/12 00:20:05;;;;;;;27.52;16.92;;;26.80;96.90;;;;;;5043413;28;20324;-47
2021/09/12 00:22:33;;;;;;;31.25;17.05;;;26.70;96.90;;;;;;5047548;28;20087;-50
2021/09/12 00:25:00;;;;;;;27.30;17.17;;;26.70;96.70;;;;;;5047293;28;20040;-46
2021/09/12 00:27:27;;;;;;;27.90;15.93;;;26.70;96.60;;;;;;5047721;28;20029;-44
2021/09/12 00:29:56;;;;;;;22.95;12.63;;;26.80;96.70;;;;;;5047438;28;20021;-46
2021/09/12 00:32:23;;;;;;;26.88;14.02;;;26.80;96.60;;;;;;5047628;28;20041;-47
2021/09/12 00:34:50;;;;;;;26.88;14.75;;;26.70;96.60;;;;;;5047164;28;20214;-44
2021/09/12 00:37:16;;;;;;;23.75;14.55;;;26.70;96.70;;;;;;5047729;28;20022;-46
2021/09/12 00:39:43;;;;;;;29.70;14.23;;;26.70;96.50;;;;;;5047329;28;20017;-53
2021/09/12 00:42:09;;;;;;;26.05;14.35;;;26.70;96.40;;;;;;5047162;28;20029;-52
2021/09/12 00:44:36;;;;;;;24.77;14.45;;;26.80;96.30;;;;;;5045995;28;20021;-47
2021/09/12 00:47:13;;;;;;;25.20;12.13;;;26.80;96.00;;;;;;5045797;28;20025;-47
2021/09/12 00:49:42;;;;;;;21.02;11.57;;;26.80;96.00;;;;;;5046274;28;20340;-47
2021/09/12 00:52:11;;;;;;;23.90;10.88;;;26.80;95.70;;;;;;5046248;28;20087;-47
2021/09/12 00:54:38;;;;;;;23.65;10.05;;;26.80;95.40;;;;;;5046042;28;20281;-49
2021/09/12 00:57:07;;;;;;;17.25;8.65;;;26.80;95.50;;;;;;5045416;28;20021;-47
2021/09/12 00:59:37;;;;;;;22.60;7.70;;;26.80;95.50;;;;;;5046182;28;20022;-48
2021/09/12 01:02:05;;;;;;;23.08;6.80;;;26.80;95.40;;;;;;5047435;28;20049;-50
2021/09/12 01:04:33;;;;;;;22.13;6.47;;;26.70;95.30;;;;;;5047450;28;20428;-46
2021/09/12 01:07:01;;;;;;;10.95;5.45;;;26.80;95.20;;;;;;5046951;28;20104;-54
2021/09/12 01:09:29;;;;;;;15.13;5.18;;;26.70;95.20;;;;;;5046926;28;20025;-48
2021/09/12 01:11:59;;;;;;;16.25;5.00;;;26.70;95.00;;;;;;5047218;28;20041;-48
2021/09/12 01:14:27;;;;;;;16.42;5.25;;;26.70;94.90;;;;;;5047065;28;20081;-48
2021/09/12 01:16:54;;;;;;;15.15;4.45;;;26.70;95.00;;;;;;5046884;28;20025;-46
2021/09/12 01:19:21;;;;;;;20.98;4.43;;;26.70;95.00;;;;;;5046977;28;20017;-46
2021/09/12 01:21:48;;;;;;;19.88;4.20;;;26.70;95.00;;;;;;5047078;28;20029;-47
2021/09/12 01:24:15;;;;;;;16.45;4.30;;;26.70;95.00;;;;;;5046402;28;20021;-49
2021/09/12 01:26:41;;;;;;;12.57;4.25;;;26.70;94.90;;;;;;5047079;28;20051;-51
2021/09/12 01:29:08;;;;;;;18.73;4.85;;;26.70;94.80;;;;;;5046563;28;20028;-50
2021/09/12 01:31:34;;;;;;;20.50;4.68;;;26.70;94.90;;;;;;5046571;28;20053;-53
2021/09/12 01:34:02;;;;;;;16.45;4.40;;;26.70;95.10;;;;;;5045844;28;20034;-46
2021/09/12 01:36:29;;;;;;;20.17;4.95;;;26.70;95.10;;;;;;5046816;28;20093;-45
2021/09/12 01:38:56;;;;;;;18.98;4.85;;;26.70;95.10;;;;;;5046534;28;20044;-49
2021/09/12 01:41:23;;;;;;;17.17;4.85;;;26.70;95.20;;;;;;5046670;28;20026;-47
2021/09/12 01:43:54;;;;;;;15.52;4.57;;;26.80;95.20;;;;;;5046266;28;20198;-45
2021/09/12 01:46:21;;;;;;;16.77;4.63;;;26.80;95.20;;;;;;5046175;28;20089;-47
2021/09/12 01:48:49;;;;;;;14.55;4.35;;;26.70;95.20;;;;;;5046325;28;20357;-50
2021/09/12 01:51:17;;;;;;;15.70;5.00;;;26.70;95.20;;;;;;5046090;28;20034;-47
2021/09/12 01:53:44;;;;;;;15.35;4.78;;;26.80;95.30;;;;;;5045788;28;20071;-49
2021/09/12 01:56:12;;;;;;;17.77;4.68;;;26.80;95.30;;;;;;5046038;28;20294;-50
2021/09/12 01:58:38;;;;;;;14.13;4.22;;;26.70;94.90;;;;;;5045829;28;20025;-45
2021/09/12 02:01:05;;;;;;;13.50;3.90;;;26.70;95.00;;;;;;5045721;28;20092;-51
2021/09/12 02:03:33;;;;;;;12.57;4.15;;;26.70;94.90;;;;;;5045854;28;20017;-51
2021/09/12 02:06:00;;;;;;;22.20;4.00;;;26.70;95.00;;;;;;5045641;28;20031;-51
2021/09/12 02:08:27;;;;;;;17.52;4.05;;;26.70;95.00;;;;;;5045521;28;20318;-50
2021/09/12 02:10:54;;;;;;;38.70;5.95;;;26.70;95.00;;;;;;5045635;28;20048;-50
2021/09/12 02:13:21;;;;;;;54.72;7.85;;;26.70;95.00;;;;;;5045378;28;20037;-48
2021/09/12 02:15:48;;;;;;;43.20;6.50;;;26.70;94.80;;;;;;5045506;28;20036;-48
2021/09/12 02:18:15;;;;;;;39.15;5.95;;;26.70;94.80;;;;;;5045447;28;20029;-50
2021/09/12 02:20:42;;;;;;;57.00;7.65;;;26.70;94.60;;;;;;5045472;28;20014;-46
2021/09/12 02:23:08;;;;;;;47.08;7.32;;;26.70;94.60;;;;;;5045339;28;20032;-49
2021/09/12 02:25:35;;;;;;;58.20;7.40;;;26.70;94.60;;;;;;5045810;28;20074;-49
2021/09/12 02:28:03;;;;;;;65.85;7.35;;;26.70;94.70;;;;;;5045596;28;20025;-49
2021/09/12 02:30:30;;;;;;;52.08;7.93;;;26.70;94.80;;;;;;5045188;28;20017;-53
2021/09/12 02:32:57;;;;;;;44.70;6.30;;;26.60;94.80;;;;;;5045350;28;20060;-50
2021/09/12 02:35:24;;;;;;;48.00;6.18;;;26.70;94.80;;;;;;5045238;28;20037;-47
2021/09/12 02:37:51;;;;;;;63.70;7.53;;;26.60;94.90;;;;;;5045457;28;20018;-48
2021/09/12 02:40:18;;;;;;;58.95;7.53;;;26.60;94.80;;;;;;5045110;28;20014;-48
2021/09/12 02:42:45;;;;;;;61.63;7.90;;;26.60;94.60;;;;;;5045954;28;20033;-46
2021/09/12 02:45:11;;;;;;;55.72;6.97;;;26.60;94.30;;;;;;5045077;28;20029;-49
2021/09/12 02:47:38;;;;;;;35.33;5.35;;;26.60;94.30;;;;;;5045462;28;20028;-47
2021/09/12 02:50:06;;;;;;;38.60;4.97;;;26.60;94.30;;;;;;5045066;28;20026;-47
2021/09/12 02:52:35;;;;;;;27.13;4.38;;;26.60;94.40;;;;;;5045482;28;20022;-47
2021/09/12 02:55:03;;;;;;;23.35;4.63;;;26.60;94.50;;;;;;5045242;28;20036;-47
2021/09/12 02:57:29;;;;;;;22.90;4.03;;;26.50;94.60;;;;;;5045556;28;20071;-46
2021/09/12 02:59:57;;;;;;;24.70;4.60;;;26.50;94.80;;;;;;5044774;28;20017;-49
2021/09/12 03:02:23;;;;;;;16.58;3.85;;;26.50;94.80;;;;;;5045192;28;20328;-52
2021/09/12 03:04:50;;;;;;;18.70;3.83;;;26.50;94.70;;;;;;5044847;28;20030;-47
2021/09/12 03:07:17;;;;;;;13.23;3.90;;;26.50;94.70;;;;;;5044954;28;20053;-45
2021/09/12 03:09:43;;;;;;;16.10;4.00;;;26.50;94.60;;;;;;5044911;28;20048;-52
2021/09/12 03:12:10;;;;;;;19.17;4.93;;;26.50;94.60;;;;;;5044756;28;20038;-46
2021/09/12 03:14:36;;;;;;;21.48;7.53;;;26.50;94.70;;;;;;5044551;28;20021;-52
2021/09/12 03:17:03;;;;;;;20.45;8.48;;;26.50;94.70;;;;;;5044997;28;20025;-51
2021/09/12 03:19:30;;;;;;;18.88;8.73;;;26.50;94.70;;;;;;5044303;28;20016;-45
2021/09/12 03:21:56;;;;;;;27.58;9.50;;;26.50;94.70;;;;;;5044478;28;20053;-53
2021/09/12 03:24:23;;;;;;;20.80;9.90;;;26.50;94.70;;;;;;5044886;28;20028;-46
2021/09/12 03:26:49;;;;;;;18.40;7.93;;;26.50;94.70;;;;;;5044781;28;20029;-45
2021/09/12 03:29:16;;;;;;;15.90;7.22;;;26.50;94.70;;;;;;5044334;28;20211;-50
2021/09/12 03:31:43;;;;;;;14.77;6.70;;;26.50;94.80;;;;;;5044916;28;20030;-49
2021/09/12 03:34:09;;;;;;;18.63;6.43;;;26.50;94.80;;;;;;5044450;28;20021;-49
2021/09/12 03:36:36;;;;;;;16.35;5.60;;;26.50;94.90;;;;;;5044580;28;20171;-46
2021/09/12 03:39:03;;;;;;;14.63;5.00;;;26.40;94.90;;;;;;5044172;28;20014;-51
2021/09/12 03:41:29;;;;;;;12.60;4.28;;;26.40;94.90;;;;;;5044669;28;20025;-50
2021/09/12 03:43:56;;;;;;;11.55;4.68;;;26.40;94.80;;;;;;5044529;28;20258;-50
2021/09/12 03:46:23;;;;;;;18.27;4.28;;;26.40;94.80;;;;;;5042943;28;20029;-54
2021/09/12 03:48:49;;;;;;;15.05;3.72;;;26.40;94.80;;;;;;5044749;28;20124;-48
2021/09/12 03:51:16;;;;;;;10.25;3.85;;;26.30;94.80;;;;;;5044432;28;20036;-48
2021/09/12 03:53:42;;;;;;;13.43;3.92;;;26.30;94.70;;;;;;5043929;28;20080;-46
2021/09/12 03:56:09;;;;;;;14.25;4.03;;;26.30;94.70;;;;;;5043577;28;20021;-49
2021/09/12 03:58:35;;;;;;;10.73;3.60;;;26.30;94.70;;;;;;5044084;28;20021;-49
2021/09/12 04:01:02;;;;;;;15.25;3.88;;;26.30;94.70;;;;;;5044189;28;20029;-48
2021/09/12 04:03:29;;;;;;;9.48;3.72;;;26.30;94.70;;;;;;5044203;28;20025;-46
2021/09/12 04:05:55;;;;;;;11.60;3.83;;;26.30;94.70;;;;;;5044068;28;20036;-51
2021/09/12 04:08:22;;;;;;;11.93;4.30;;;26.30;94.70;;;;;;5043942;28;20103;-49
2021/09/12 04:10:48;;;;;;;13.13;4.10;;;26.30;94.60;;;;;;5044045;28;20257;-51
2021/09/12 04:13:15;;;;;;;11.20;3.75;;;26.30;94.50;;;;;;5044077;28;20051;-50
2021/09/12 04:15:41;;;;;;;11.45;3.70;;;26.30;94.50;;;;;;5043662;28;20071;-48
2021/09/12 04:18:08;;;;;;;15.52;3.65;;;26.30;94.40;;;;;;5043906;28;20028;-53
2021/09/12 04:20:35;;;;;;;9.68;3.50;;;26.30;94.40;;;;;;5044253;28;20067;-48
2021/09/12 04:23:01;;;;;;;11.02;3.40;;;26.30;94.40;;;;;;5043907;28;20033;-53
2021/09/12 04:25:28;;;;;;;11.90;3.25;;;26.30;94.40;;;;;;5043875;28;20306;-50
2021/09/12 04:27:54;;;;;;;12.20;3.22;;;26.30;94.40;;;;;;5043904;28;20048;-51
2021/09/12 04:30:21;;;;;;;11.43;3.20;;;26.30;94.30;;;;;;5044005;28;20017;-46
2021/09/12 04:32:47;;;;;;;13.77;4.80;;;26.30;94.30;;;;;;5044363;28;20036;-48
2021/09/12 04:35:14;;;;;;;16.80;5.68;;;26.30;94.40;;;;;;5044081;28;20064;-49
2021/09/12 04:37:41;;;;;;;11.70;4.90;;;26.30;94.30;;;;;;5044172;28;20092;-47
2021/09/12 04:40:08;;;;;;;12.57;4.28;;;26.30;94.30;;;;;;5043791;28;20064;-47
2021/09/12 04:42:34;;;;;;;16.48;4.25;;;26.30;94.30;;;;;;5044131;28;20056;-47
2021/09/12 04:45:01;;;;;;;13.07;5.28;;;26.30;94.30;;;;;;5044009;28;20313;-47
2021/09/12 04:47:28;;;;;;;12.55;5.30;;;26.30;94.20;;;;;;5044316;28;20029;-46
2021/09/12 04:49:54;;;;;;;15.32;6.65;;;26.30;94.20;;;;;;5043824;28;20024;-46
2021/09/12 04:52:21;;;;;;;18.63;7.47;;;26.30;94.20;;;;;;5043805;28;20025;-49
2021/09/12 04:54:47;;;;;;;14.68;7.80;;;26.30;94.20;;;;;;5043681;28;20013;-47
2021/09/12 04:57:14;;;;;;;16.50;8.07;;;26.30;94.10;;;;;;5044428;28;20028;-47
2021/09/12 04:59:40;;;;;;;20.98;7.43;;;26.30;94.10;;;;;;5043906;28;20014;-54
2021/09/12 05:02:07;;;;;;;16.80;7.95;;;26.30;94.10;;;;;;5043999;28;20056;-46
2021/09/12 05:04:34;;;;;;;17.38;6.93;;;26.30;94.30;;;;;;5043785;28;20024;-46
2021/09/12 05:07:01;;;;;;;10.85;5.53;;;26.20;94.00;;;;;;5043307;28;20034;-46
2021/09/12 05:09:27;;;;;;;15.70;6.80;;;26.20;94.00;;;;;;5046325;28;20083;-51
2021/09/12 05:11:54;;;;;;;15.43;6.53;;;26.20;94.00;;;;;;5047399;28;20268;-47
2021/09/12 05:14:21;;;;;;;17.70;6.28;;;26.20;94.00;;;;;;5047217;28;20187;-46
2021/09/12 05:16:48;;;;;;;15.23;5.95;;;26.30;94.00;;;;;;5047345;28;20029;-49
2021/09/12 05:19:14;;;;;;;13.10;4.80;;;26.20;93.90;;;;;;5047325;28;20017;-51
2021/09/12 05:21:41;;;;;;;10.30;4.35;;;26.20;93.80;;;;;;5047286;28;20033;-54
2021/09/12 05:24:08;;;;;;;14.23;4.15;;;26.30;93.80;;;;;;5046922;28;20018;-47
2021/09/12 05:26:35;;;;;;;16.70;4.18;;;26.20;93.70;;;;;;5047165;28;20025;-47
2021/09/12 05:29:01;;;;;;;12.90;3.70;;;26.20;93.80;;;;;;5046733;28;20013;-45
2021/09/12 05:31:28;;;;;;;12.57;2.97;;;26.20;93.80;;;;;;5047075;28;20085;-53
2021/09/12 05:33:55;;;;;;;15.18;3.38;;;26.20;93.70;;;;;;5046850;28;20018;-47
2021/09/12 05:36:21;;;;;;;7.93;2.75;;;26.20;93.60;;;;;;5047225;28;20021;-51
2021/09/12 05:38:49;;;;;;;11.07;2.75;;;26.20;93.40;;;;;;5046666;28;20047;-50
2021/09/12 05:41:17;;;;;;;9.40;3.13;;;26.20;93.50;;;;;;5046497;28;20210;-55
2021/09/12 05:43:43;;;;;;;13.13;2.92;;;26.20;93.50;;;;;;5046511;28;20021;-49
2021/09/12 05:46:10;;;;;;;10.05;2.53;;;26.10;93.50;;;;;;5046656;28;20029;-46
2021/09/12 05:48:36;;;;;;;9.48;2.53;;;26.10;93.60;;;;;;5046531;28;20021;-56
2021/09/12 05:51:03;;;;;;;10.43;2.58;;;26.20;93.60;;;;;;5046106;28;20048;-48
2021/09/12 05:53:30;;;;;;;11.50;2.50;;;26.10;93.50;;;;;;5046195;28;20025;-52
2021/09/12 05:55:58;;;;;;;9.50;2.80;;;26.10;93.40;;;;;;5046389;28;20324;-51
2021/09/12 05:58:25;;;;;;;8.40;2.55;;;26.10;93.60;;;;;;5046515;28;20060;-49
2021/09/12 06:00:52;;;;;;;9.63;2.35;;;26.10;93.30;;;;;;5046841;28;20037;-51
2021/09/12 06:03:18;;;;;;;11.20;2.90;;;26.10;93.30;;;;;;5046282;28;20021;-47
2021/09/12 06:05:45;;;;;;;9.70;2.63;;;26.10;93.30;;;;;;5046338;28;20056;-52
2021/09/12 06:08:12;;;;;;;13.18;2.83;;;26.10;93.40;;;;;;5044702;28;20226;-49
2021/09/12 06:10:38;;;;;;;11.23;3.25;;;26.10;93.50;;;;;;5045696;28;20314;-49
2021/09/12 06:13:05;;;;;;;10.55;3.22;;;26.10;93.50;;;;;;5046270;28;20029;-49
2021/09/12 06:15:31;;;;;;;12.45;4.22;;;26.00;93.60;;;;;;5046035;28;20014;-51
2021/09/12 06:17:58;;;;;;;10.77;3.85;;;26.00;93.70;;;;;;5045623;28;20055;-48
2021/09/12 06:20:25;;;;;;;8.50;3.15;;;26.00;93.80;;;;;;5045388;28;20017;-50
2021/09/12 06:22:53;;;;;;;15.60;3.70;;;26.00;93.80;;;;;;5046158;28;20166;-52
2021/09/12 06:25:20;;;;;;;13.43;3.90;;;26.10;93.90;;;;;;5046049;28;20254;-46
2021/09/12 06:27:48;;;;;;;12.55;3.70;;;26.10;93.80;;;;;;5046678;28;20025;-48
2021/09/12 06:30:17;;;;;;;20.73;6.07;;;26.10;93.80;;;;;;5045937;28;20235;-56
2021/09/12 06:32:44;;;;;;;22.58;9.48;;;26.00;93.70;;;;;;5046236;28;20037;-47
2021/09/12 06:35:11;;;;;;;20.88;9.65;;;26.00;93.70;;;;;;5046178;28;20028;-51
2021/09/12 06:37:38;;;;;;;21.75;12.77;;;26.00;93.70;;;;;;5045848;28;20088;-46
2021/09/12 06:40:06;;;;;;;24.95;10.77;;;26.00;93.70;;;;;;5045491;28;20022;-48
2021/09/12 06:42:33;;;;;;;16.40;7.35;;;26.00;93.70;;;;;;5046119;28;20036;-50
2021/09/12 06:45:00;;;;;;;17.50;6.53;;;26.00;93.70;;;;;;5045554;28;20021;-47
2021/09/12 06:47:26;;;;;;;13.75;5.85;;;26.00;93.60;;;;;;5045670;28;20025;-48
2021/09/12 06:49:53;;;;;;;13.00;5.22;;;26.00;93.60;;;;;;5045218;28;20021;-46
2021/09/12 06:52:20;;;;;;;16.13;4.55;;;26.00;93.60;;;;;;5045176;28;20033;-48
2021/09/12 06:54:46;;;;;;;15.63;4.00;;;26.00;93.60;;;;;;5045088;28;20063;-50
2021/09/12 06:57:13;;;;;;;12.05;4.00;;;26.00;93.60;;;;;;5045747;28;20037;-55
2021/09/12 06:59:39;;;;;;;14.85;3.85;;;25.90;93.50;;;;;;5045187;28;20020;-47
2021/09/12 07:02:06;;;;;;;15.60;3.78;;;25.90;93.60;;;;;;5045835;28;20021;-50
2021/09/12 07:04:33;;;;;;;14.55;3.72;;;25.90;93.60;;;;;;5045477;28;20204;-49
2021/09/12 07:07:00;;;;;;;8.43;3.03;;;25.90;93.50;;;;;;5045564;28;20029;-54
2021/09/12 07:09:26;;;;;;;9.35;3.08;;;25.90;93.50;;;;;;5045077;28;20024;-49
2021/09/12 07:11:53;;;;;;;18.70;3.72;;;25.90;93.40;;;;;;5045258;28;20037;-54
2021/09/12 07:14:19;;;;;;;11.90;2.80;;;25.80;93.40;;;;;;5044958;28;20226;-48
2021/09/12 07:16:46;;;;;;;12.05;2.80;;;25.80;93.40;;;;;;5045182;28;20308;-48
2021/09/12 07:19:13;;;;;;;11.20;2.95;;;25.80;93.30;;;;;;5044909;28;20025;-50
2021/09/12 07:21:39;;;;;;;11.02;2.65;;;25.80;93.30;;;;;;5044863;28;20246;-51
2021/09/12 07:24:06;;;;;;;11.38;2.60;;;25.80;93.30;;;;;;5045210;28;20028;-46
2021/09/12 07:26:32;;;;;;;8.35;2.60;;;25.80;93.20;;;;;;5045221;28;20021;-52
2021/09/12 07:28:59;;;;;;;7.40;2.22;;;25.80;93.10;;;;;;5044831;28;20010;-56
2021/09/12 07:31:26;;;;;;;7.78;2.22;;;25.80;93.20;;;;;;5043904;28;20036;-50
2021/09/12 07:33:52;;;;;;;11.43;2.58;;;25.70;93.10;;;;;;5044795;28;20202;-51
2021/09/12 07:36:19;;;;;;;13.45;3.08;;;25.70;93.10;;;;;;5044931;28;20029;-54
2021/09/12 07:38:46;;;;;;;12.40;2.60;;;25.70;93.00;;;;;;5044669;28;20040;-51
2021/09/12 07:41:12;;;;;;;9.70;3.38;;;25.70;93.10;;;;;;5044872;28;20025;-51
2021/09/12 07:43:39;;;;;;;11.20;4.35;;;25.70;93.00;;;;;;5044493;28;20238;-48
2021/09/12 07:46:06;;;;;;;13.18;4.95;;;25.80;93.00;;;;;;5044752;28;20029;-49
2021/09/12 07:48:33;;;;;;;12.82;4.20;;;25.80;93.00;;;;;;5044274;28;20092;-47
2021/09/12 07:51:02;;;;;;;11.57;3.83;;;25.80;93.00;;;;;;5044351;28;20025;-50
2021/09/12 07:53:29;;;;;;;12.57;3.60;;;25.70;93.00;;;;;;5044039;28;20032;-46
2021/09/12 07:55:56;;;;;;;9.65;3.55;;;25.70;92.90;;;;;;5043919;28;20373;-45
2021/09/12 07:58:22;;;;;;;10.57;3.15;;;25.70;93.00;;;;;;5043901;28;20021;-46
2021/09/12 08:00:50;;;;;;;12.30;4.05;;;25.70;92.90;;;;;;5044157;28;20067;-45
2021/09/12 08:03:16;;;;;;;13.55;4.10;;;25.70;92.90;;;;;;5044501;28;20021;-54
2021/09/12 08:05:43;;;;;;;9.48;3.30;;;25.70;92.90;;;;;;5044424;28;20046;-52
2021/09/12 08:08:10;;;;;;;10.52;4.25;;;25.70;92.90;;;;;;5044364;28;20061;-46
2021/09/12 08:10:36;;;;;;;8.02;4.07;;;25.80;93.00;;;;;;5044084;28;20036;-48
2021/09/12 08:13:03;;;;;;;12.48;4.70;;;25.70;92.90;;;;;;5044441;28;20021;-49
2021/09/12 08:15:29;;;;;;;14.77;4.40;;;25.70;92.90;;;;;;5044425;28;20076;-48
2021/09/12 08:17:56;;;;;;;15.50;4.25;;;25.70;92.90;;;;;;5044273;28;20026;-47
2021/09/12 08:20:23;;;;;;;12.60;4.03;;;25.70;92.90;;;;;;5044410;28;20017;-53
2021/09/12 08:22:50;;;;;;;10.38;3.40;;;25.70;92.80;;;;;;5044713;28;20270;-52
2021/09/12 08:25:16;;;;;;;12.20;3.53;;;25.70;92.80;;;;;;5043756;28;20021;-47
2021/09/12 08:27:43;;;;;;;7.50;2.90;;;25.70;93.00;;;;;;5044715;28;20025;-48
2021/09/12 08:30:10;;;;;;;11.10;2.85;;;25.70;92.70;;;;;;5044230;28;20069;-48
2021/09/12 08:32:36;;;;;;;11.20;3.30;;;25.70;92.60;;;;;;5044269;28;20281;-50
2021/09/12 08:35:03;;;;;;;11.35;3.35;;;25.70;92.60;;;;;;5044380;28;20028;-48
2021/09/12 08:37:30;;;;;;;13.43;3.05;;;25.70;92.60;;;;;;5044692;28;20021;-48
2021/09/12 08:39:56;;;;;;;15.07;3.10;;;25.70;92.60;;;;;;5044147;28;20018;-51
2021/09/12 08:42:26;;;;;;;10.77;3.20;;;25.70;92.50;;;;;;5046336;28;20026;-48
2021/09/12 08:44:53;;;;;;;11.35;4.03;;;25.70;92.50;;;;;;5047684;28;20029;-49
2021/09/12 08:47:20;;;;;;;12.02;3.50;;;25.70;92.60;;;;;;5048073;28;20205;-48
2021/09/12 08:49:47;;;;;;;15.88;4.03;;;25.70;92.60;;;;;;5047803;28;20025;-47
2021/09/12 08:52:15;;;;;;;14.80;4.25;;;25.70;92.50;;;;;;5047651;28;20025;-51
2021/09/12 08:54:42;;;;;;;13.45;3.33;;;25.70;92.60;;;;;;5047326;28;20213;-55
2021/09/12 08:57:08;;;;;;;16.33;3.65;;;25.70;92.50;;;;;;5048196;28;20017;-49
2021/09/12 08:59:36;;;;;;;15.82;4.15;;;25.70;92.50;;;;;;5047700;28;20026;-47
2021/09/12 09:02:08;;;;;;;13.18;3.25;;;25.70;92.40;;;;;;5047823;28;20031;-51
2021/09/12 09:04:36;;;;;;;12.90;3.42;;;25.70;92.40;;;;;;5046683;28;20029;-48
2021/09/12 09:07:09;;;;;;;12.98;3.35;;;25.70;92.40;;;;;;5047303;28;20036;-50
2021/09/12 09:09:42;;;;;;;10.38;4.00;;;25.70;92.40;;;;;;5047613;28;20017;-50
2021/09/12 09:12:37;;;;;;;14.23;4.20;;;25.70;92.40;;;;;;5047622;28;20072;-50
2021/09/12 09:15:14;;;;;;;15.82;4.18;;;25.70;92.40;;;;;;5046869;28;20018;-46
2021/09/12 09:17:52;;;;;;;9.90;3.63;;;25.70;92.40;;;;;;5047654;28;20155;-46
2021/09/12 09:20:20;;;;;;;10.85;3.40;;;25.70;92.40;;;;;;5047091;28;20022;-46
2021/09/12 09:22:49;;;;;;;10.52;3.67;;;25.70;92.40;;;;;;5047824;28;20096;-47
2021/09/12 09:25:20;;;;;;;12.85;3.72;;;25.70;92.40;;;;;;5047330;28;20029;-49
2021/09/12 09:28:03;;;;;;;12.68;3.08;;;25.60;92.40;;;;;;5047646;28;20033;-48
2021/09/12 09:30:54;;;;;;;9.85;3.53;;;25.60;92.40;;;;;;5046759;28;20024;-48
2021/09/12 09:33:28;;;;;;;17.02;3.25;;;25.60;92.40;;;;;;5046717;28;20024;-47
2021/09/12 09:36:02;;;;;;;8.02;3.05;;;25.60;92.30;;;;;;5046688;28;20328;-45
2021/09/12 09:38:34;;;;;;;8.68;3.15;;;25.60;92.40;;;;;;5047052;28;20071;-50
2021/09/12 09:41:07;;;;;;;13.48;2.88;;;25.60;92.30;;;;;;5046659;28;20183;-48
2021/09/12 09:43:41;;;;;;;10.65;2.40;;;25.60;92.30;;;;;;5046653;28;20045;-46
2021/09/12 09:46:33;;;;;;;11.95;2.47;;;25.60;92.50;;;;;;5046597;28;20036;-48
2021/09/12 09:49:21;;;;;;;9.35;2.72;;;25.50;92.40;;;;;;5046777;28;20205;-48
2021/09/12 09:51:55;;;;;;;9.98;2.30;;;25.50;92.30;;;;;;5035794;28;20037;-46
2021/09/12 09:54:25;;;;;;;8.60;2.83;;;25.50;92.30;;;;;;5045715;28;20041;-49
2021/09/12 09:56:53;;;;;;;13.35;3.05;;;25.50;92.30;;;;;;5046937;28;20048;-49
2021/09/12 09:59:23;;;;;;;14.75;3.28;;;25.50;92.40;;;;;;5046089;28;20151;-52
2021/09/12 10:01:51;;;;;;;9.07;3.55;;;25.50;92.50;;;;;;5046679;28;20202;-47
2021/09/12 10:04:23;;;;;;;15.45;4.25;;;25.50;92.60;;;;;;5046298;28;20237;-45
2021/09/12 10:06:51;;;;;;;12.38;4.50;;;25.50;92.70;;;;;;5046296;28;20036;-47
2021/09/12 10:09:18;;;;;;;17.70;4.65;;;25.50;92.70;;;;;;5046170;28;20225;-46
2021/09/12 10:11:59;;;;;;;11.48;4.25;;;25.40;92.80;;;;;;5046058;28;20028;-47
2021/09/12 10:14:31;;;;;;;13.95;3.80;;;25.50;92.90;;;;;;5045888;28;20017;-50
2021/09/12 10:17:01;;;;;;;8.82;3.30;;;25.40;92.80;;;;;;5045935;28;20022;-50
2021/09/12 10:19:33;;;;;;;10.90;3.30;;;25.40;92.90;;;;;;5045864;28;20394;-46
2021/09/12 10:22:13;;;;;;;13.02;3.05;;;25.40;92.90;;;;;;5046545;28;20068;-48
2021/09/12 10:25:00;;;;;;;11.48;2.70;;;25.30;92.90;;;;;;5045985;28;20349;-48
2021/09/12 10:27:44;;;;;;;10.73;2.67;;;25.40;92.90;;;;;;5045978;28;20033;-48
2021/09/12 10:30:39;;;;;;;16.42;2.70;;;25.30;93.30;;;;;;5045584;28;20085;-48
2021/09/12 10:33:06;;;;;;;8.25;2.60;;;25.30;93.10;;;;;;5045514;28;20100;-48
2021/09/12 10:35:45;;;;;;;6.35;2.15;;;25.30;93.20;;;;;;5045223;28;20081;-44
2021/09/12 10:38:22;;;;;;;9.57;2.47;;;25.20;93.20;;;;;;5045364;28;20017;-51
2021/09/12 10:40:53;;;;;;;15.43;2.75;;;25.30;93.20;;;;;;5045062;28;20037;-49
2021/09/12 10:43:26;;;;;;;26.65;3.92;;;25.20;93.20;;;;;;5044905;28;20322;-47
2021/09/12 10:46:02;;;;;;;27.05;3.60;;;25.20;93.20;;;;;;5044961;28;20096;-46
2021/09/12 10:48:39;;;;;;;34.05;5.10;;;25.30;93.20;;;;;;5044820;28;20042;-51
2021/09/12 10:51:26;;;;;;;28.42;4.70;;;25.30;93.20;;;;;;5045031;28;20320;-48
2021/09/12 10:53:55;;;;;;;33.72;4.72;;;25.30;93.20;;;;;;5045012;28;20029;-47
2021/09/12 10:56:25;;;;;;;37.05;5.38;;;25.30;93.20;;;;;;5044967;28;20045;-52
2021/09/12 10:58:59;;;;;;;28.23;4.90;;;25.30;93.30;;;;;;5044944;28;20017;-52
2021/09/12 11:01:35;;;;;;;26.40;4.03;;;25.30;93.40;;;;;;5044874;28;20021;-52
2021/09/12 11:04:03;;;;;;;25.67;4.75;;;25.30;93.40;;;;;;5044767;28;20044;-46
2021/09/12 11:06:32;;;;;;;22.20;3.85;;;25.30;93.40;;;;;;5044561;28;20029;-47
2021/09/12 11:08:59;;;;;;;23.38;4.07;;;25.30;93.50;;;;;;5044334;28;20045;-47
2021/09/12 11:11:27;;;;;;;18.20;3.75;;;25.30;93.50;;;;;;5044674;28;20025;-46
2021/09/12 11:13:55;;;;;;;13.15;4.32;;;25.30;93.60;;;;;;5044667;28;20317;-52
2021/09/12 11:16:24;;;;;;;15.23;3.38;;;25.30;93.60;;;;;;5044679;28;20088;-51
2021/09/12 11:18:52;;;;;;;17.40;3.45;;;25.30;93.70;;;;;;5044406;28;20091;-50
2021/09/12 11:21:32;;;;;;;17.48;3.90;;;25.30;93.80;;;;;;5044646;28;20037;-53
2021/09/12 11:24:11;;;;;;;11.38;3.78;;;25.30;93.80;;;;;;5044658;28;20388;-51
2021/09/12 11:26:42;;;;;;;13.35;3.28;;;25.30;93.80;;;;;;5044646;28;20087;-50
2021/09/12 11:29:12;;;;;;;12.67;3.37;;;25.30;93.80;;;;;;5044315;28;20309;-50
2021/09/12 11:31:39;;;;;;;15.65;3.10;;;25.30;93.70;;;;;;5044256;28;20028;-50
2021/09/12 11:34:06;;;;;;;10.32;2.90;;;25.40;93.50;;;;;;5044163;28;20056;-50
2021/09/12 11:36:43;;;;;;;10.05;2.80;;;25.50;93.40;;;;;;5044141;28;20030;-51
2021/09/12 11:39:10;;;;;;;8.80;2.30;;;25.50;93.40;;;;;;5044221;28;20024;-50
2021/09/12 11:41:37;;;;;;;10.50;2.45;;;25.60;93.40;;;;;;5044256;28;20059;-48
2021/09/12 11:44:04;;;;;;;9.07;2.50;;;25.70;93.20;;;;;;5043999;28;20029;-49
2021/09/12 11:46:31;;;;;;;12.57;2.63;;;25.70;93.20;;;;;;5044060;28;20063;-49
2021/09/12 11:49:04;;;;;;;7.53;2.05;;;25.70;93.10;;;;;;5044042;28;20021;-51
2021/09/12 11:51:35;;;;;;;8.07;2.97;;;25.70;93.00;;;;;;5043959;28;20025;-47
2021/09/12 11:54:27;;;;;;;8.40;2.13;;;25.80;93.30;;;;;;5044005;28;20021;-46
2021/09/12 11:57:06;;;;;;;9.60;2.47;;;25.80;92.80;;;;;;5044078;28;20045;-51
2021/09/12 11:59:40;;;;;;;8.75;2.63;;;25.90;92.90;;;;;;5043948;28;20014;-48
2021/09/12 12:02:12;;;;;;;7.40;2.40;;;25.90;92.80;;;;;;5043958;28;20042;-47
2021/09/12 12:04:40;;;;;;;8.07;2.70;;;25.90;92.80;;;;;;5043749;28;20213;-45
2021/09/12 12:07:07;;;;;;;10.73;2.97;;;25.90;92.90;;;;;;5043779;28;20037;-47
2021/09/12 12:09:43;;;;;;;10.88;2.85;;;25.90;92.90;;;;;;5043707;28;20348;-48
2021/09/12 12:12:15;;;;;;;9.52;3.17;;;26.00;93.00;;;;;;5043926;28;20037;-48
2021/09/12 12:15:00;;;;;;;10.18;2.90;;;26.00;92.80;;;;;;5043532;28;20026;-47
2021/09/12 12:17:27;;;;;;;9.82;2.83;;;26.00;92.80;;;;;;5046194;28;20049;-50
2021/09/12 12:19:57;;;;;;;7.93;3.10;;;26.10;93.00;;;;;;5047714;28;20083;-56
2021/09/12 12:22:34;;;;;;;10.30;3.03;;;26.10;92.90;;;;;;5047831;28;20306;-49
2021/09/12 12:25:01;;;;;;;9.50;3.00;;;26.10;92.90;;;;;;5047771;28;20036;-52
2021/09/12 12:27:28;;;;;;;6.90;3.25;;;26.10;92.80;;;;;;5048022;28;20048;-48
2021/09/12 12:30:03;;;;;;;14.77;3.65;;;26.10;92.80;;;;;;5047545;28;20025;-52
2021/09/12 12:32:32;;;;;;;13.00;3.38;;;26.10;92.80;;;;;;5047978;28;20025;-48
2021/09/12 12:35:01;;;;;;;13.35;3.85;;;26.10;92.70;;;;;;5047667;28;20067;-51
2021/09/12 12:37:43;;;;;;;17.25;3.67;;;26.10;93.00;;;;;;5048152;28;20100;-49
2021/09/12 12:40:13;;;;;;;10.90;2.60;;;26.10;92.90;;;;;;5047398;28;20022;-51
2021/09/12 12:42:43;;;;;;;11.50;3.00;;;26.10;93.00;;;;;;5047834;28;20092;-54
2021/09/12 12:45:21;;;;;;;9.13;3.17;;;26.10;93.10;;;;;;5047355;28;20368;-55